createdAt,value
2019-05-20T00:00:41.346Z,17.22
2019-05-20T00:03:14.005Z,17.18
2019-05-20T00:05:47.021Z,17.15
2019-05-20T00:08:19.875Z,17.15
2019-05-20T00:10:52.646Z,17.13
2019-05-20T00:13:25.168Z,17.10
2019-05-20T00:15:57.895Z,17.08
2019-05-20T00:18:30.736Z,17.09
2019-05-20T00:21:03.407Z,17.09
2019-05-20T00:23:36.186Z,17.08
2019-05-20T00:26:08.978Z,17.04
2019-05-20T00:28:41.686Z,17.04
2019-05-20T00:31:14.326Z,17.04
2019-05-20T00:33:46.859Z,17.03
2019-05-20T00:36:19.480Z,16.99
2019-05-20T00:39:18.254Z,16.99
2019-05-20T00:41:52.156Z,16.96
2019-05-20T00:44:24.826Z,16.95
2019-05-20T00:46:57.386Z,16.93
2019-05-20T00:49:31.346Z,16.92
2019-05-20T00:52:04.006Z,16.87
2019-05-20T00:54:37.958Z,16.87
2019-05-20T00:57:10.635Z,16.87
2019-05-20T00:59:43.366Z,16.87
2019-05-20T01:02:15.995Z,16.85
2019-05-20T01:04:48.805Z,16.82
2019-05-20T01:07:22.446Z,16.81
2019-05-20T01:09:55.358Z,16.80
2019-05-20T01:12:27.936Z,16.80
2019-05-20T01:15:01.073Z,16.79
2019-05-20T01:17:35.546Z,16.78
2019-05-20T01:20:08.363Z,16.76
2019-05-20T01:22:40.796Z,16.77
2019-05-20T01:25:14.685Z,16.77
2019-05-20T01:27:47.576Z,16.74
2019-05-20T01:30:20.665Z,16.71
2019-05-20T01:32:54.875Z,16.67
2019-05-20T01:35:27.746Z,16.66
2019-05-20T01:38:00.766Z,16.64
2019-05-20T01:40:34.185Z,16.62
2019-05-20T01:43:07.147Z,16.61
2019-05-20T01:45:39.955Z,16.60
2019-05-20T01:48:12.476Z,16.60
2019-05-20T01:50:45.048Z,16.59
2019-05-20T01:53:17.731Z,16.59
2019-05-20T01:55:50.626Z,16.59
2019-05-20T01:58:24.436Z,16.58
2019-05-20T02:00:57.596Z,16.57
2019-05-20T02:03:32.201Z,16.52
2019-05-20T02:06:04.569Z,16.52
2019-05-20T02:08:37.731Z,16.51
2019-05-20T02:11:10.940Z,16.51
2019-05-20T02:14:03.264Z,16.49
2019-05-20T02:16:36.556Z,16.45
2019-05-20T02:19:09.886Z,16.45
2019-05-20T02:21:42.745Z,16.45
2019-05-20T02:24:15.537Z,16.44
2019-05-20T02:26:48.637Z,16.43
2019-05-20T02:29:21.606Z,16.43
2019-05-20T02:31:54.541Z,16.43
2019-05-20T02:34:29.536Z,16.43
2019-05-20T02:37:02.385Z,16.43
2019-05-20T02:39:35.038Z,16.40
2019-05-20T02:42:08.075Z,16.42
2019-05-20T02:44:41.986Z,16.41
2019-05-20T02:47:14.826Z,16.41
2019-05-20T02:49:47.425Z,16.40
2019-05-20T02:52:20.542Z,16.42
2019-05-20T02:54:53.392Z,16.45
2019-05-20T02:57:26.396Z,16.45
2019-05-20T02:59:59.693Z,16.45
2019-05-20T03:02:33.905Z,16.44
2019-05-20T03:05:07.385Z,16.44
2019-05-20T03:07:40.238Z,16.44
2019-05-20T03:10:13.505Z,16.47
2019-05-20T03:12:46.665Z,16.46
2019-05-20T03:15:21.038Z,16.43
2019-05-20T03:17:53.747Z,16.47
2019-05-20T03:20:26.693Z,16.47
2019-05-20T03:22:59.650Z,16.47
2019-05-20T03:25:33.946Z,16.50
2019-05-20T03:28:06.716Z,16.53
2019-05-20T03:30:39.461Z,16.54
2019-05-20T03:33:12.597Z,16.56
2019-05-20T03:35:45.391Z,16.57
2019-05-20T03:38:18.337Z,16.60
2019-05-20T03:40:51.117Z,16.63
2019-05-20T03:43:23.910Z,16.66
2019-05-20T03:45:56.424Z,16.70
2019-05-20T03:48:33.036Z,16.74
2019-05-20T03:51:03.547Z,16.80
2019-05-20T03:53:36.616Z,16.86
2019-05-20T03:56:09.517Z,16.88
2019-05-20T03:58:43.605Z,16.91
2019-05-20T04:01:16.498Z,16.93
2019-05-20T04:03:48.996Z,16.94
2019-05-20T04:06:21.853Z,16.97
2019-05-20T04:08:54.626Z,16.99
2019-05-20T04:11:27.187Z,17.01
2019-05-20T04:14:00.148Z,17.03
2019-05-20T04:16:32.766Z,17.04
2019-05-20T04:19:05.458Z,17.06
2019-05-20T04:21:38.848Z,17.06
2019-05-20T04:24:11.759Z,17.08
2019-05-20T04:26:44.622Z,17.11
2019-05-20T04:29:17.323Z,17.16
2019-05-20T04:31:50.476Z,17.20
2019-05-20T04:34:23.832Z,17.26
2019-05-20T04:36:56.484Z,17.30
2019-05-20T04:39:29.267Z,17.32
2019-05-20T04:42:05.635Z,17.38
2019-05-20T04:44:36.353Z,17.43
2019-05-20T04:47:08.956Z,17.46
2019-05-20T04:49:41.596Z,17.51
2019-05-20T04:52:14.315Z,17.55
2019-05-20T04:54:47.018Z,17.56
2019-05-20T04:57:20.067Z,17.62
2019-05-20T04:59:52.457Z,17.70
2019-05-20T05:02:24.961Z,17.75
2019-05-20T05:04:57.384Z,17.81
2019-05-20T05:07:30.535Z,17.89
2019-05-20T05:10:02.935Z,17.96
2019-05-20T05:12:35.505Z,18.03
2019-05-20T05:15:09.185Z,18.12
2019-05-20T05:17:41.738Z,18.17
2019-05-20T05:20:18.241Z,18.25
2019-05-20T05:22:49.475Z,18.33
2019-05-20T05:25:25.115Z,18.49
2019-05-20T05:28:00.155Z,18.69
2019-05-20T05:30:32.698Z,18.83
2019-05-20T05:33:05.236Z,18.98
2019-05-20T05:35:51.990Z,19.11
2019-05-20T05:38:12.026Z,19.25
2019-05-20T05:40:44.765Z,19.24
2019-05-20T05:43:17.356Z,19.20
2019-05-20T05:45:49.935Z,19.19
2019-05-20T05:48:22.446Z,19.24
2019-05-20T05:50:54.975Z,19.33
2019-05-20T05:53:27.585Z,19.43
2019-05-20T05:56:01.086Z,19.49
2019-05-20T05:58:33.585Z,19.52
2019-05-20T06:01:06.248Z,19.49
2019-05-20T06:03:38.804Z,19.44
2019-05-20T06:06:13.259Z,19.44
2019-05-20T06:08:45.707Z,19.43
2019-05-20T06:11:18.173Z,19.43
2019-05-20T06:13:50.795Z,19.45
2019-05-20T06:16:36.085Z,19.48
2019-05-20T06:18:57.549Z,19.52
2019-05-20T06:21:30.076Z,19.68
2019-05-20T06:24:03.375Z,19.89
2019-05-20T06:26:35.858Z,20.11
2019-05-20T06:29:08.336Z,20.36
2019-05-20T06:31:40.879Z,20.53
2019-05-20T06:34:13.672Z,20.73
2019-05-20T06:36:49.128Z,21.18
2019-05-20T06:39:21.714Z,21.49
2019-05-20T06:41:54.109Z,21.52
2019-05-20T06:44:26.966Z,21.66
2019-05-20T06:46:59.693Z,21.75
2019-05-20T06:49:32.451Z,21.87
2019-05-20T06:52:04.865Z,22.05
2019-05-20T06:54:37.537Z,22.20
2019-05-20T06:57:10.244Z,22.20
2019-05-20T06:59:43.006Z,22.28
2019-05-20T07:02:15.525Z,22.20
2019-05-20T07:04:48.137Z,22.21
2019-05-20T07:07:22.048Z,22.22
2019-05-20T07:09:54.776Z,22.18
2019-05-20T07:12:40.177Z,22.47
2019-05-20T07:15:03.246Z,22.54
2019-05-20T07:17:37.215Z,22.77
2019-05-20T07:20:09.856Z,23.21
2019-05-20T07:22:55.126Z,23.13
2019-05-20T07:25:17.617Z,23.40
2019-05-20T07:27:50.238Z,23.53
2019-05-20T07:30:22.833Z,23.51
2019-05-20T07:32:55.501Z,23.66
2019-05-20T07:35:30.636Z,23.90
2019-05-20T07:38:02.195Z,24.14
2019-05-20T07:40:35.156Z,24.38
2019-05-20T07:43:07.881Z,24.46
2019-05-20T07:45:40.656Z,24.67
2019-05-20T07:48:13.499Z,25.07
2019-05-20T07:50:47.026Z,25.40
2019-05-20T07:53:20.993Z,25.28
2019-05-20T07:56:02.168Z,25.28
2019-05-20T07:58:37.196Z,25.45
2019-05-20T08:01:10.576Z,25.91
2019-05-20T08:03:43.230Z,25.99
2019-05-20T08:06:15.887Z,26.20
2019-05-20T08:08:48.615Z,26.28
2019-05-20T08:11:21.088Z,26.48
2019-05-20T08:13:53.786Z,26.73
2019-05-20T08:16:26.619Z,26.62
2019-05-20T08:18:59.687Z,26.78
2019-05-20T08:21:32.722Z,27.01
2019-05-20T08:24:05.498Z,27.17
2019-05-20T08:26:37.929Z,27.04
2019-05-20T08:29:11.497Z,26.85
2019-05-20T08:31:43.997Z,26.53
2019-05-20T08:34:16.487Z,26.68
2019-05-20T08:36:48.858Z,26.83
2019-05-20T08:39:21.427Z,26.33
2019-05-20T08:41:54.077Z,26.10
2019-05-20T08:44:26.573Z,26.05
2019-05-20T08:46:59.195Z,26.19
2019-05-20T08:49:32.031Z,26.27
2019-05-20T08:52:04.736Z,26.05
2019-05-20T08:54:40.236Z,25.95
2019-05-20T08:57:11.735Z,26.26
2019-05-20T08:59:44.185Z,26.28
2019-05-20T09:02:16.874Z,26.40
2019-05-20T09:04:49.395Z,26.81
2019-05-20T09:07:22.027Z,26.97
2019-05-20T09:09:54.367Z,27.17
2019-05-20T09:12:27.007Z,26.77
2019-05-20T09:14:59.462Z,26.40
2019-05-20T09:17:32.087Z,26.25
2019-05-20T09:20:04.656Z,26.08
2019-05-20T09:22:37.248Z,25.76
2019-05-20T09:25:10.872Z,25.69
2019-05-20T09:27:43.683Z,26.37
2019-05-20T09:30:16.647Z,26.80
2019-05-20T09:32:49.357Z,26.67
2019-05-20T09:35:22.003Z,26.54
2019-05-20T09:37:54.636Z,26.47
2019-05-20T09:40:40.707Z,26.34
2019-05-20T09:43:14.913Z,26.24
2019-05-20T09:45:47.436Z,26.01
2019-05-20T09:48:20.137Z,25.73
2019-05-20T09:50:52.776Z,25.66
2019-05-20T09:53:25.927Z,25.69
2019-05-20T09:55:58.376Z,25.51
2019-05-20T09:58:33.111Z,25.26
2019-05-20T10:01:05.626Z,25.03
2019-05-20T10:03:38.295Z,24.86
2019-05-20T10:06:10.794Z,24.78
2019-05-20T10:08:45.308Z,24.68
2019-05-20T10:11:18.037Z,24.49
2019-05-20T10:13:50.526Z,24.39
2019-05-20T10:16:23.036Z,24.36
2019-05-20T10:19:00.056Z,24.45
2019-05-20T10:21:32.819Z,24.66
2019-05-20T10:24:07.946Z,24.85
2019-05-20T10:26:43.035Z,24.93
2019-05-20T10:29:16.821Z,25.11
2019-05-20T10:31:51.706Z,25.19
2019-05-20T10:34:24.886Z,25.07
2019-05-20T10:36:57.468Z,24.89
2019-05-20T10:39:30.056Z,24.85
2019-05-20T10:42:02.796Z,25.02
2019-05-20T10:44:35.297Z,25.23
2019-05-20T10:47:09.021Z,25.68
2019-05-20T10:49:42.064Z,26.36
2019-05-20T10:52:22.934Z,27.07
2019-05-20T10:54:59.635Z,27.40
2019-05-20T10:57:32.920Z,27.14
2019-05-20T11:00:08.345Z,27.22
2019-05-20T11:02:44.745Z,28.13
2019-05-20T11:05:21.714Z,28.76
2019-05-20T11:08:02.735Z,29.10
2019-05-20T11:10:37.156Z,29.28
2019-05-20T11:13:10.035Z,29.64
2019-05-20T11:15:42.846Z,29.83
2019-05-20T11:18:15.586Z,30.17
2019-05-20T11:20:48.209Z,30.02
2019-05-20T11:23:20.698Z,29.46
2019-05-20T11:25:53.388Z,29.35
2019-05-20T11:28:26.076Z,29.60
2019-05-20T11:31:00.396Z,30.01
2019-05-20T11:33:40.096Z,29.79
2019-05-20T11:36:12.837Z,30.06
2019-05-20T11:38:47.148Z,30.17
2019-05-20T11:41:20.346Z,30.50
2019-05-20T11:43:52.975Z,30.64
2019-05-20T11:46:37.557Z,30.95
2019-05-20T11:49:51.388Z,30.80
2019-05-20T11:52:35.059Z,31.17
2019-05-20T11:55:11.027Z,30.83
2019-05-20T11:57:53.117Z,30.75
2019-05-20T12:00:31.458Z,30.16
2019-05-20T12:03:07.916Z,29.57
2019-05-20T12:05:46.819Z,29.47
2019-05-20T12:08:20.226Z,29.89
2019-05-20T12:10:54.539Z,29.99
2019-05-20T12:13:31.909Z,30.41
2019-05-20T12:16:07.565Z,30.53
2019-05-20T12:18:45.219Z,30.58
2019-05-20T12:21:23.314Z,30.40
2019-05-20T12:24:20.477Z,30.03
2019-05-20T12:27:04.737Z,30.27
2019-05-20T12:29:37.765Z,30.39
2019-05-20T12:32:12.273Z,30.07
2019-05-20T12:34:45.266Z,29.33
2019-05-20T12:37:27.084Z,28.71
2019-05-20T12:40:07.521Z,28.61
2019-05-20T12:42:48.583Z,29.11
2019-05-20T12:45:32.074Z,29.84
2019-05-20T12:48:08.753Z,29.83
2019-05-20T12:50:44.576Z,29.89
2019-05-20T12:53:23.382Z,30.42
2019-05-20T12:56:01.156Z,29.94
2019-05-20T12:58:38.705Z,29.41
2019-05-20T13:01:12.116Z,28.91
2019-05-20T13:03:46.744Z,28.52
2019-05-20T13:06:22.967Z,28.13
2019-05-20T13:08:58.026Z,27.55
2019-05-20T13:11:30.635Z,27.00
2019-05-20T13:14:05.835Z,26.45
2019-05-20T13:16:45.386Z,26.13
2019-05-20T13:19:22.648Z,25.91
2019-05-20T13:22:02.563Z,25.64
2019-05-20T13:24:36.577Z,25.64
2019-05-20T13:27:09.236Z,25.68
2019-05-20T13:29:41.596Z,25.81
2019-05-20T13:32:17.715Z,25.88
2019-05-20T13:34:50.336Z,26.15
2019-05-20T13:37:22.865Z,26.07
2019-05-20T13:39:55.448Z,25.81
2019-05-20T13:42:28.067Z,25.65
2019-05-20T13:45:00.557Z,25.57
2019-05-20T13:47:33.133Z,25.49
2019-05-20T13:50:06.652Z,25.36
2019-05-20T13:52:39.216Z,25.26
2019-05-20T13:55:12.191Z,25.22
2019-05-20T13:57:47.860Z,25.13
2019-05-20T14:00:23.631Z,25.10
2019-05-20T14:02:57.320Z,25.08
2019-05-20T14:05:31.446Z,25.07
2019-05-20T14:08:10.749Z,24.99
2019-05-20T14:11:02.500Z,24.94
2019-05-20T14:13:21.974Z,25.16
2019-05-20T14:15:56.737Z,25.83
2019-05-20T14:18:31.432Z,25.86
2019-05-20T14:21:05.616Z,25.80
2019-05-20T14:23:38.484Z,25.67
2019-05-20T14:26:12.334Z,25.49
2019-05-20T14:28:49.719Z,25.17
2019-05-20T14:31:22.697Z,25.00
2019-05-20T14:33:57.826Z,24.89
2019-05-20T14:36:40.502Z,24.84
2019-05-20T14:39:14.924Z,24.73
2019-05-20T14:41:52.374Z,24.66
2019-05-20T14:44:25.735Z,24.55
2019-05-20T14:47:00.605Z,24.46
2019-05-20T14:49:36.056Z,24.43
2019-05-20T14:52:09.374Z,24.40
2019-05-20T14:54:42.566Z,24.31
2019-05-20T14:57:19.608Z,24.28
2019-05-20T14:59:53.446Z,24.20
2019-05-20T15:02:30.926Z,24.04
2019-05-20T15:05:06.520Z,23.91
2019-05-20T15:07:40.993Z,23.74
2019-05-20T15:10:17.373Z,23.52
2019-05-20T15:12:52.016Z,23.33
2019-05-20T15:15:30.977Z,23.16
2019-05-20T15:18:04.136Z,23.00
2019-05-20T15:20:36.758Z,22.85
2019-05-20T15:23:09.747Z,22.72
2019-05-20T15:25:54.804Z,22.58
2019-05-20T15:28:33.636Z,22.44
2019-05-20T15:31:16.134Z,22.31
2019-05-20T15:34:00.386Z,22.17
2019-05-20T15:36:33.272Z,22.02
2019-05-20T15:39:07.370Z,21.84
2019-05-20T15:41:41.626Z,21.63
2019-05-20T15:44:15.929Z,21.42
2019-05-20T15:46:52.104Z,21.16
2019-05-20T15:49:38.079Z,20.95
2019-05-20T15:52:09.911Z,20.81
2019-05-20T15:54:44.906Z,20.76
2019-05-20T15:57:17.570Z,20.69
2019-05-20T15:59:50.064Z,20.58
2019-05-20T16:02:31.576Z,20.48
2019-05-20T16:05:11.136Z,20.36
2019-05-20T16:07:45.076Z,20.36
2019-05-20T16:10:44.195Z,20.32
2019-05-20T16:13:17.194Z,20.37
2019-05-20T16:15:52.917Z,20.29
2019-05-20T16:18:31.205Z,20.23
2019-05-20T16:21:04.066Z,20.17
2019-05-20T16:23:36.824Z,20.16
2019-05-20T16:26:11.210Z,19.98
2019-05-20T16:28:44.157Z,19.98
2019-05-20T16:31:17.786Z,19.95
2019-05-20T16:33:59.526Z,19.91
2019-05-20T16:36:34.957Z,19.87
2019-05-20T16:39:16.840Z,19.80
2019-05-20T16:41:52.137Z,19.77
2019-05-20T16:44:26.420Z,19.71
2019-05-20T16:46:58.915Z,19.64
2019-05-20T16:49:36.436Z,19.56
2019-05-20T16:52:14.139Z,19.54
2019-05-20T16:54:47.671Z,19.48
2019-05-20T16:57:22.922Z,19.43
2019-05-20T16:59:59.365Z,19.34
2019-05-20T17:02:38.347Z,19.25
2019-05-20T17:05:11.466Z,19.20
2019-05-20T17:07:48.117Z,19.11
2019-05-20T17:10:22.236Z,19.03
2019-05-20T17:13:25.386Z,18.95
2019-05-20T17:16:05.386Z,18.82
2019-05-20T17:18:42.256Z,18.71
2019-05-20T17:21:20.226Z,18.67
2019-05-20T17:23:55.587Z,18.68
2019-05-20T17:26:29.545Z,18.64
2019-05-20T17:29:06.699Z,18.70
2019-05-20T17:31:45.189Z,18.80
2019-05-20T17:34:19.404Z,18.88
2019-05-20T17:36:52.225Z,18.88
2019-05-20T17:39:24.899Z,18.91
2019-05-20T17:41:59.426Z,18.86
2019-05-20T17:44:33.766Z,18.82
2019-05-20T17:47:06.456Z,18.77
2019-05-20T17:49:42.559Z,18.75
2019-05-20T17:52:15.632Z,18.70
2019-05-20T17:54:48.326Z,18.65
2019-05-20T17:57:20.794Z,18.60
2019-05-20T17:59:53.456Z,18.54
2019-05-20T18:02:25.984Z,18.48
2019-05-20T18:05:00.977Z,18.42
2019-05-20T18:07:34.100Z,18.30
2019-05-20T18:10:07.477Z,18.14
2019-05-20T18:12:41.157Z,18.01
2019-05-20T18:15:14.397Z,17.92
2019-05-20T18:17:46.945Z,18.01
2019-05-20T18:20:19.938Z,18.08
2019-05-20T18:22:54.406Z,18.11
2019-05-20T18:25:27.004Z,18.07
2019-05-20T18:28:00.447Z,18.00
2019-05-20T18:30:36.391Z,17.97
2019-05-20T18:33:12.117Z,17.94
2019-05-20T18:35:46.706Z,17.98
2019-05-20T18:38:20.656Z,17.99
2019-05-20T18:40:57.391Z,17.99
2019-05-20T18:43:34.291Z,17.97
2019-05-20T18:46:09.009Z,17.98
2019-05-20T18:48:44.334Z,17.94
2019-05-20T18:51:21.657Z,17.89
2019-05-20T18:53:54.256Z,17.86
2019-05-20T18:56:27.025Z,17.86
2019-05-20T18:58:59.547Z,17.84
2019-05-20T19:01:46.068Z,17.76
2019-05-20T19:04:06.710Z,17.72
2019-05-20T19:06:39.426Z,17.66
2019-05-20T19:09:12.195Z,17.61
2019-05-20T19:11:44.919Z,17.56
2019-05-20T19:14:18.456Z,17.49
2019-05-20T19:16:51.037Z,17.43
2019-05-20T19:19:23.669Z,17.29
2019-05-20T19:21:57.837Z,17.32
2019-05-20T19:24:32.504Z,17.31
2019-05-20T19:27:06.057Z,17.28
2019-05-20T19:29:38.909Z,17.24
2019-05-20T19:32:12.145Z,17.19
2019-05-20T19:34:44.895Z,17.14
2019-05-20T19:37:17.673Z,17.11
2019-05-20T19:39:50.436Z,17.05
2019-05-20T19:42:22.986Z,16.99
2019-05-20T19:44:55.536Z,16.95
2019-05-20T19:47:28.095Z,16.93
2019-05-20T19:50:00.768Z,16.89
2019-05-20T19:52:34.600Z,16.86
2019-05-20T19:55:07.477Z,16.83
2019-05-20T19:57:39.944Z,16.80
2019-05-20T20:00:13.156Z,16.74
2019-05-20T20:02:45.941Z,16.70
2019-05-20T20:05:18.326Z,16.63
2019-05-20T20:07:51.213Z,16.58
2019-05-20T20:10:23.606Z,16.56
2019-05-20T20:12:56.066Z,16.50
2019-05-20T20:15:28.586Z,16.45
2019-05-20T20:18:01.045Z,16.37
2019-05-20T20:20:33.770Z,16.31
2019-05-20T20:23:06.308Z,16.21
2019-05-20T20:25:40.105Z,16.15
2019-05-20T20:28:12.768Z,16.09
2019-05-20T20:30:45.235Z,16.03
2019-05-20T20:33:17.804Z,15.99
2019-05-20T20:35:50.428Z,15.95
2019-05-20T20:38:23.862Z,15.90
2019-05-20T20:40:56.523Z,15.86
2019-05-20T20:43:32.089Z,15.78
2019-05-20T20:46:03.754Z,15.77
2019-05-20T20:48:36.425Z,15.76
2019-05-20T20:51:09.026Z,15.78
2019-05-20T20:53:41.598Z,15.83
2019-05-20T20:56:24.600Z,15.86
2019-05-20T20:58:48.615Z,15.88
2019-05-20T21:01:21.647Z,15.93
2019-05-20T21:03:56.229Z,15.95
2019-05-20T21:06:32.710Z,15.90
2019-05-20T21:09:07.718Z,15.87
2019-05-20T21:11:45.559Z,15.80
2019-05-20T21:14:22.263Z,15.71
2019-05-20T21:16:54.985Z,15.67
2019-05-20T21:19:27.647Z,15.63
2019-05-20T21:22:00.080Z,15.60
2019-05-20T21:24:32.977Z,15.59
2019-05-20T21:27:05.476Z,15.56
2019-05-20T21:29:38.035Z,15.48
2019-05-20T21:32:11.573Z,15.46
2019-05-20T21:34:44.740Z,15.48
2019-05-20T21:37:17.250Z,15.47
2019-05-20T21:39:50.446Z,15.48
2019-05-20T21:42:22.845Z,15.49
2019-05-20T21:44:55.356Z,15.47
2019-05-20T21:47:27.877Z,15.46
2019-05-20T21:50:00.405Z,15.47
2019-05-20T21:52:33.015Z,15.50
2019-05-20T21:55:05.595Z,15.48
2019-05-20T21:57:38.206Z,15.46
2019-05-20T22:00:13.277Z,15.41
2019-05-20T22:02:47.239Z,15.40
2019-05-20T22:05:20.046Z,15.35
2019-05-20T22:07:52.676Z,15.37
2019-05-20T22:10:25.189Z,15.36
2019-05-20T22:12:57.935Z,15.37
2019-05-20T22:15:30.455Z,15.38
2019-05-20T22:18:02.915Z,15.39
2019-05-20T22:20:35.533Z,15.36
2019-05-20T22:23:25.785Z,15.31
2019-05-20T22:25:58.339Z,15.28
2019-05-20T22:28:30.775Z,15.22
2019-05-20T22:31:03.187Z,15.21
2019-05-20T22:33:41.682Z,15.26
2019-05-20T22:36:10.970Z,15.33
2019-05-20T22:38:43.463Z,15.37
2019-05-20T22:41:16.095Z,15.45
2019-05-20T22:43:48.567Z,15.51
2019-05-20T22:46:21.059Z,15.58
2019-05-20T22:48:53.584Z,15.61
2019-05-20T22:51:26.246Z,15.66
2019-05-20T22:53:58.844Z,15.68
2019-05-20T22:56:31.545Z,15.70
2019-05-20T22:59:04.109Z,15.71
2019-05-20T23:01:36.536Z,15.74
2019-05-20T23:04:09.207Z,15.74
2019-05-20T23:06:41.674Z,15.71
2019-05-20T23:09:14.993Z,15.73
2019-05-20T23:11:47.754Z,15.75
2019-05-20T23:14:20.215Z,15.77
2019-05-20T23:16:52.824Z,15.79
2019-05-20T23:19:25.390Z,15.78
2019-05-20T23:21:57.999Z,15.79
2019-05-20T23:24:33.575Z,15.81
2019-05-20T23:27:06.203Z,15.85
2019-05-20T23:29:38.757Z,15.85
2019-05-20T23:32:11.701Z,15.88
2019-05-20T23:34:44.405Z,15.90
2019-05-20T23:37:17.145Z,15.88
2019-05-20T23:39:50.183Z,15.90
2019-05-20T23:42:22.868Z,15.96
2019-05-20T23:44:55.307Z,16.01
2019-05-20T23:47:27.860Z,16.03
2019-05-20T23:50:00.727Z,15.98
2019-05-20T23:52:34.561Z,15.95
2019-05-20T23:55:07.505Z,15.96
2019-05-20T23:57:40.153Z,15.98
